Time;durP1;ratioP1;P1;durP2;ratioP2;P2;SDS_P1;SDS_P2;PMS_P1;PMS_P2;Temp;Humidity;BMP_temperature;BMP_pressure;BME280_temperature;BME280_humidity;BME280_pressure;Samples;Min_cycle;Max_cycle;Signal;HPM_P1;HPM_P2
2022/01/05 00:00:30;;;;;;;18.63;5.13;;;;;;;;;;5049612;28;20463;-83
2022/01/05 00:02:56;;;;;;;17.73;3.63;;;;;;;;;;5050508;28;20546;-82
2022/01/05 00:05:23;;;;;;;8.50;3.47;;;;;;;;;;5047558;28;20542;-82
2022/01/05 00:07:49;;;;;;;11.03;3.33;;;;;;;;;;5046897;28;20464;-82
2022/01/05 00:10:15;;;;;;;12.83;3.50;;;;;;;;;;5048496;28;20475;-82
2022/01/05 00:12:41;;;;;;;12.90;3.97;;;;;;;;;;5048722;28;21140;-83
2022/01/05 00:15:10;;;;;;;9.43;3.50;;;;;;;;;;5048745;28;21020;-84
2022/01/05 00:17:36;;;;;;;10.50;3.97;;;;;;;;;;5047900;28;20816;-83
2022/01/05 00:20:03;;;;;;;13.57;3.20;;;;;;;;;;5048321;28;20469;-82
2022/01/05 00:22:30;;;;;;;7.97;2.23;;;;;;;;;;5047703;28;20468;-82
2022/01/05 00:24:56;;;;;;;16.27;3.70;;;;;;;;;;5050464;28;20453;-82
2022/01/05 00:27:22;;;;;;;10.30;2.50;;;;;;;;;;5048578;28;20459;-83
2022/01/05 00:29:49;;;;;;;12.10;2.80;;;;;;;;;;5048896;28;20445;-83
2022/01/05 00:32:16;;;;;;;10.37;2.83;;;;;;;;;;5049087;28;21036;-82
2022/01/05 00:34:43;;;;;;;8.73;2.93;;;;;;;;;;5047898;28;20503;-81
2022/01/05 00:37:09;;;;;;;5.37;2.67;;;;;;;;;;5047734;28;20464;-84
2022/01/05 00:39:35;;;;;;;11.63;3.10;;;;;;;;;;5050276;28;20440;-83
2022/01/05 00:42:01;;;;;;;18.63;2.77;;;;;;;;;;5046596;28;20496;-83
2022/01/05 00:44:28;;;;;;;8.80;2.70;;;;;;;;;;5048735;28;20471;-81
2022/01/05 00:46:54;;;;;;;9.80;2.93;;;;;;;;;;5046047;28;20486;-83
2022/01/05 00:49:22;;;;;;;16.73;3.67;;;;;;;;;;5049348;28;20502;-82
2022/01/05 00:51:48;;;;;;;9.70;2.47;;;;;;;;;;5049130;28;20475;-82
2022/01/05 00:54:14;;;;;;;8.47;2.10;;;;;;;;;;5050376;28;20481;-83
2022/01/05 00:56:40;;;;;;;12.10;2.67;;;;;;;;;;5047899;28;20946;-83
2022/01/05 00:59:07;;;;;;;12.03;3.00;;;;;;;;;;5048538;28;20487;-83
2022/01/05 01:01:33;;;;;;;8.03;2.80;;;;;;;;;;5047360;28;20483;-82
2022/01/05 01:03:59;;;;;;;5.70;2.63;;;;;;;;;;5048905;28;20483;-85
2022/01/05 01:06:27;;;;;;;18.37;3.20;;;;;;;;;;5046639;28;20923;-84
2022/01/05 01:08:53;;;;;;;14.77;3.30;;;;;;;;;;5047996;28;20570;-83
2022/01/05 01:11:19;;;;;;;9.90;2.20;;;;;;;;;;5046352;28;20559;-83
2022/01/05 01:13:46;;;;;;;9.47;3.90;;;;;;;;;;5047625;28;20491;-82
2022/01/05 01:16:12;;;;;;;19.60;3.40;;;;;;;;;;5047883;28;20457;-82
2022/01/05 01:18:38;;;;;;;15.00;3.10;;;;;;;;;;5046825;28;20485;-82
2022/01/05 01:21:05;;;;;;;10.90;2.60;;;;;;;;;;5046027;28;20489;-82
2022/01/05 01:23:32;;;;;;;11.37;4.13;;;;;;;;;;5048299;28;20464;-83
2022/01/05 01:25:58;;;;;;;9.47;3.20;;;;;;;;;;5050080;28;20462;-83
2022/01/05 01:28:25;;;;;;;15.23;3.10;;;;;;;;;;5048240;28;20537;-83
2022/01/05 01:30:51;;;;;;;10.37;3.07;;;;;;;;;;5046511;28;20519;-82
2022/01/05 01:33:18;;;;;;;18.37;3.27;;;;;;;;;;5047872;28;20985;-82
2022/01/05 01:35:44;;;;;;;11.63;3.03;;;;;;;;;;5043445;28;21278;-84
2022/01/05 01:38:10;;;;;;;8.80;3.83;;;;;;;;;;5046456;28;21058;-85
2022/01/05 01:40:38;;;;;;;11.17;3.43;;;;;;;;;;5046318;28;20490;-82
2022/01/05 01:43:04;;;;;;;17.30;3.03;;;;;;;;;;5048148;28;20484;-83
2022/01/05 01:45:31;;;;;;;17.77;3.47;;;;;;;;;;5049869;28;20449;-83
2022/01/05 01:47:57;;;;;;;10.17;2.70;;;;;;;;;;5044295;28;20491;-82
2022/01/05 01:50:23;;;;;;;6.20;2.10;;;;;;;;;;5047923;28;20453;-83
2022/01/05 01:52:49;;;;;;;8.43;2.97;;;;;;;;;;5067380;23;20510;-79
2022/01/05 01:55:16;;;;;;;15.87;3.80;;;;;;;;;;5043806;28;20481;-80
2022/01/05 01:57:45;;;;;;;7.53;3.37;;;;;;;;;;5043976;28;20541;-77
2022/01/05 02:00:11;;;;;;;16.57;3.00;;;;;;;;;;5043676;28;20453;-79
2022/01/05 02:02:38;;;;;;;9.37;2.77;;;;;;;;;;5048533;28;20497;-79
2022/01/05 02:05:04;;;;;;;9.23;3.77;;;;;;;;;;5062839;28;20452;-79
2022/01/05 02:07:31;;;;;;;8.53;3.77;;;;;;;;;;5060085;28;20478;-79
2022/01/05 02:09:57;;;;;;;12.97;3.80;;;;;;;;;;5060654;28;20500;-79
2022/01/05 02:12:26;;;;;;;5.87;2.67;;;;;;;;;;5061334;28;20471;-79
2022/01/05 02:14:54;;;;;;;7.83;2.93;;;;;;;;;;5063550;28;20484;-80
2022/01/05 02:17:24;;;;;;;10.87;3.67;;;;;;;;;;5057002;28;20494;-80
2022/01/05 02:19:51;;;;;;;14.67;2.90;;;;;;;;;;5058294;28;20455;-79
2022/01/05 02:22:19;;;;;;;7.57;2.80;;;;;;;;;;5059892;28;20510;-80
2022/01/05 02:24:47;;;;;;;11.87;2.53;;;;;;;;;;5060035;28;20452;-79
2022/01/05 02:27:13;;;;;;;16.10;4.53;;;;;;;;;;5061186;28;20455;-79
2022/01/05 02:29:39;;;;;;;6.50;3.13;;;;;;;;;;5060166;28;20452;-79
2022/01/05 02:32:06;;;;;;;20.60;4.57;;;;;;;;;;5059436;28;20452;-79
2022/01/05 02:34:33;;;;;;;14.50;4.03;;;;;;;;;;5059803;28;20484;-80
2022/01/05 02:36:59;;;;;;;12.43;3.40;;;;;;;;;;5061599;28;20443;-79
2022/01/05 02:39:26;;;;;;;12.43;4.70;;;;;;;;;;5061269;28;20517;-79
2022/01/05 02:41:53;;;;;;;9.53;3.40;;;;;;;;;;5061893;28;20478;-80
2022/01/05 02:44:19;;;;;;;11.57;4.27;;;;;;;;;;5059008;28;20535;-79
2022/01/05 02:46:45;;;;;;;17.30;3.50;;;;;;;;;;5060111;28;20451;-79
2022/01/05 02:49:11;;;;;;;8.43;3.00;;;;;;;;;;5059793;28;20478;-80
2022/01/05 02:51:38;;;;;;;16.17;3.80;;;;;;;;;;5061331;28;20444;-79
2022/01/05 02:54:05;;;;;;;11.63;3.53;;;;;;;;;;5060102;28;20471;-79
2022/01/05 02:56:33;;;;;;;11.60;3.87;;;;;;;;;;5061048;28;20463;-80
2022/01/05 02:58:59;;;;;;;14.47;2.77;;;;;;;;;;5054978;28;20471;-79
2022/01/05 03:01:25;;;;;;;15.40;2.97;;;;;;;;;;5062004;28;20457;-80
2022/01/05 03:03:51;;;;;;;14.37;3.13;;;;;;;;;;5058506;28;20877;-79
2022/01/05 03:06:18;;;;;;;13.20;3.40;;;;;;;;;;5062483;28;20448;-80
2022/01/05 03:08:44;;;;;;;13.83;2.83;;;;;;;;;;5059848;28;20550;-79
2022/01/05 03:11:10;;;;;;;11.87;2.60;;;;;;;;;;5062250;28;20995;-79
2022/01/05 03:13:38;;;;;;;13.70;3.30;;;;;;;;;;5061349;28;21782;-80
2022/01/05 03:16:05;;;;;;;16.30;3.80;;;;;;;;;;5059889;28;20509;-79
2022/01/05 03:18:31;;;;;;;8.73;2.87;;;;;;;;;;5059154;28;20475;-80
2022/01/05 03:20:57;;;;;;;55.07;6.53;;;;;;;;;;5060674;28;20463;-79
2022/01/05 03:23:23;;;;;;;12.57;3.63;;;;;;;;;;5060933;28;20537;-79
2022/01/05 03:25:50;;;;;;;9.73;2.77;;;;;;;;;;5060943;28;20436;-79
2022/01/05 03:28:16;;;;;;;7.47;2.60;;;;;;;;;;5059747;28;20521;-79
2022/01/05 03:30:44;;;;;;;16.83;2.80;;;;;;;;;;5066568;28;20455;-77
2022/01/05 03:33:11;;;;;;;10.40;2.20;;;;;;;;;;5062433;28;20478;-78
2022/01/05 03:35:40;;;;;;;12.93;4.57;;;;;;;;;;5066133;28;20495;-79
2022/01/05 03:38:06;;;;;;;14.63;3.33;;;;;;;;;;5063796;28;20480;-79
2022/01/05 03:40:34;;;;;;;7.17;2.70;;;;;;;;;;5064308;28;20468;-79
2022/01/05 03:43:00;;;;;;;13.73;3.17;;;;;;;;;;5065375;28;20476;-79
2022/01/05 03:45:27;;;;;;;12.57;3.03;;;;;;;;;;5066042;28;20466;-79
2022/01/05 03:47:54;;;;;;;17.33;3.73;;;;;;;;;;5065251;28;20844;-79
2022/01/05 03:50:20;;;;;;;12.77;3.77;;;;;;;;;;5063670;28;20470;-79
2022/01/05 03:52:47;;;;;;;14.90;3.23;;;;;;;;;;5060501;28;20468;-79
2022/01/05 03:55:13;;;;;;;9.83;2.60;;;;;;;;;;5063394;28;20492;-79
2022/01/05 03:57:39;;;;;;;11.23;3.00;;;;;;;;;;5062805;28;20484;-79
2022/01/05 04:00:06;;;;;;;7.13;2.50;;;;;;;;;;5064003;28;20463;-79
2022/01/05 04:02:33;;;;;;;14.03;2.83;;;;;;;;;;5064601;28;20487;-79
2022/01/05 04:05:00;;;;;;;21.73;4.30;;;;;;;;;;5064029;28;20444;-79
2022/01/05 04:07:26;;;;;;;14.67;5.07;;;;;;;;;;5064832;28;20475;-79
2022/01/05 04:09:53;;;;;;;14.77;4.00;;;;;;;;;;5061001;28;20589;-79
2022/01/05 04:12:19;;;;;;;8.80;3.53;;;;;;;;;;5060598;28;22092;-80
2022/01/05 04:14:45;;;;;;;10.30;3.07;;;;;;;;;;5062934;28;20491;-79
2022/01/05 04:17:11;;;;;;;13.97;5.03;;;;;;;;;;5065759;28;20444;-79
2022/01/05 04:19:38;;;;;;;12.07;3.97;;;;;;;;;;5062895;28;20459;-79
2022/01/05 04:22:06;;;;;;;13.87;3.40;;;;;;;;;;5062995;28;20483;-80
2022/01/05 04:24:32;;;;;;;8.57;3.60;;;;;;;;;;5059106;28;20497;-78
2022/01/05 04:26:58;;;;;;;25.30;3.47;;;;;;;;;;5063325;28;20458;-79
2022/01/05 04:29:24;;;;;;;11.00;3.30;;;;;;;;;;5062099;28;20464;-79
2022/01/05 04:31:51;;;;;;;12.73;4.40;;;;;;;;;;5063800;28;20443;-79
2022/01/05 04:34:18;;;;;;;12.10;3.10;;;;;;;;;;5061911;28;20484;-79
2022/01/05 04:36:45;;;;;;;6.60;3.47;;;;;;;;;;5065089;28;20454;-79
2022/01/05 04:39:12;;;;;;;10.03;3.23;;;;;;;;;;5062457;28;20467;-79
2022/01/05 04:41:38;;;;;;;9.57;3.27;;;;;;;;;;5062674;28;21019;-79
2022/01/05 04:44:05;;;;;;;9.13;2.93;;;;;;;;;;5063538;28;20478;-79
2022/01/05 04:46:31;;;;;;;13.83;2.90;;;;;;;;;;5062280;28;20467;-79
2022/01/05 04:48:57;;;;;;;13.60;4.13;;;;;;;;;;5061225;28;20477;-80
2022/01/05 04:51:23;;;;;;;13.13;4.30;;;;;;;;;;5063756;28;20458;-79
2022/01/05 04:53:51;;;;;;;6.50;3.20;;;;;;;;;;5060764;28;20910;-79
2022/01/05 04:56:19;;;;;;;14.00;5.43;;;;;;;;;;5063237;28;20522;-79
2022/01/05 04:58:45;;;;;;;12.70;3.57;;;;;;;;;;5060023;28;20468;-79
2022/01/05 05:01:11;;;;;;;14.53;3.43;;;;;;;;;;5064650;28;21171;-79
2022/01/05 05:03:38;;;;;;;16.67;3.57;;;;;;;;;;5062210;28;21259;-79
2022/01/05 05:06:04;;;;;;;14.00;4.83;;;;;;;;;;5061877;28;20460;-79
2022/01/05 05:08:30;;;;;;;15.60;3.80;;;;;;;;;;5061057;28;20478;-79
2022/01/05 05:10:57;;;;;;;19.90;3.83;;;;;;;;;;5063707;28;20504;-79
2022/01/05 05:13:24;;;;;;;13.37;5.20;;;;;;;;;;5062941;28;20529;-79
2022/01/05 05:15:50;;;;;;;16.17;4.40;;;;;;;;;;5066374;28;20484;-79
2022/01/05 05:18:17;;;;;;;14.80;5.20;;;;;;;;;;5063118;28;20533;-79
2022/01/05 05:20:43;;;;;;;16.40;3.23;;;;;;;;;;5060932;28;20464;-78
2022/01/05 05:23:09;;;;;;;10.67;3.67;;;;;;;;;;5055624;28;20522;-79
2022/01/05 05:25:35;;;;;;;10.87;3.80;;;;;;;;;;5057769;28;20447;-79
2022/01/05 05:28:02;;;;;;;7.03;3.00;;;;;;;;;;5059019;28;20487;-80
2022/01/05 05:30:29;;;;;;;25.73;4.80;;;;;;;;;;5058039;28;20873;-79
2022/01/05 05:32:57;;;;;;;11.17;3.50;;;;;;;;;;5055011;28;20488;-80
2022/01/05 05:35:26;;;;;;;10.30;2.53;;;;;;;;;;5061789;28;20478;-78
2022/01/05 05:37:52;;;;;;;15.20;3.60;;;;;;;;;;5060955;28;20882;-79
2022/01/05 05:40:18;;;;;;;10.53;2.90;;;;;;;;;;5060599;28;20450;-79
2022/01/05 05:42:45;;;;;;;9.73;3.10;;;;;;;;;;5062796;28;20541;-79
2022/01/05 05:45:11;;;;;;;14.00;2.47;;;;;;;;;;5060212;28;20565;-79
2022/01/05 05:47:38;;;;;;;17.33;3.90;;;;;;;;;;5061044;28;20459;-79
2022/01/05 05:50:05;;;;;;;15.67;3.70;;;;;;;;;;5061607;28;20474;-79
2022/01/05 05:52:32;;;;;;;9.87;2.50;;;;;;;;;;5060450;28;20568;-79
2022/01/05 05:54:58;;;;;;;12.73;3.40;;;;;;;;;;5060663;28;20479;-79
2022/01/05 05:57:24;;;;;;;12.63;3.90;;;;;;;;;;5061243;28;21082;-79
2022/01/05 05:59:51;;;;;;;15.80;3.17;;;;;;;;;;5061582;28;21074;-79
2022/01/05 06:02:17;;;;;;;13.70;3.50;;;;;;;;;;5060536;28;20455;-79
2022/01/05 06:04:44;;;;;;;13.00;3.90;;;;;;;;;;5061672;28;20451;-79
2022/01/05 06:07:11;;;;;;;21.43;4.07;;;;;;;;;;5061152;28;20454;-80
2022/01/05 06:09:37;;;;;;;9.07;3.40;;;;;;;;;;5062303;28;20450;-79
2022/01/05 06:12:03;;;;;;;14.40;3.60;;;;;;;;;;5061913;28;20463;-79
2022/01/05 06:14:30;;;;;;;17.70;5.20;;;;;;;;;;5059792;28;20444;-80
2022/01/05 06:16:56;;;;;;;12.27;5.07;;;;;;;;;;5059965;28;20486;-79
2022/01/05 06:19:22;;;;;;;17.93;4.33;;;;;;;;;;5060762;28;20487;-80
2022/01/05 06:21:50;;;;;;;10.40;3.10;;;;;;;;;;5059361;28;20479;-79
2022/01/05 06:24:17;;;;;;;17.27;4.07;;;;;;;;;;5060629;28;20518;-80
2022/01/05 06:26:44;;;;;;;19.50;5.03;;;;;;;;;;5059596;28;20463;-79
2022/01/05 06:29:12;;;;;;;10.63;3.57;;;;;;;;;;5061744;28;20471;-79
2022/01/05 06:31:39;;;;;;;13.07;5.13;;;;;;;;;;5061244;28;20455;-78
2022/01/05 06:34:05;;;;;;;19.03;4.40;;;;;;;;;;5061452;28;20487;-80
2022/01/05 06:36:31;;;;;;;9.43;3.43;;;;;;;;;;5057523;28;20483;-79
2022/01/05 06:38:59;;;;;;;8.80;3.50;;;;;;;;;;5058050;28;20470;-78
2022/01/05 06:41:25;;;;;;;15.33;3.90;;;;;;;;;;5062192;28;20444;-79
2022/01/05 06:43:51;;;;;;;13.37;4.07;;;;;;;;;;5061328;28;20490;-79
2022/01/05 06:46:18;;;;;;;11.77;3.57;;;;;;;;;;5059887;28;20462;-80
2022/01/05 06:48:44;;;;;;;15.00;4.73;;;;;;;;;;5059420;28;21106;-79
2022/01/05 06:51:10;;;;;;;13.43;4.17;;;;;;;;;;5059267;28;20463;-79
2022/01/05 06:53:37;;;;;;;14.17;3.20;;;;;;;;;;5057606;28;20493;-79
2022/01/05 06:56:05;;;;;;;15.20;4.30;;;;;;;;;;5061680;28;20479;-80
2022/01/05 06:58:32;;;;;;;13.33;4.50;;;;;;;;;;5059250;28;20533;-79
2022/01/05 07:00:58;;;;;;;9.53;4.40;;;;;;;;;;5057712;28;20886;-78
2022/01/05 07:03:24;;;;;;;14.50;3.50;;;;;;;;;;5058800;28;20490;-79
2022/01/05 07:05:51;;;;;;;11.77;3.57;;;;;;;;;;5063947;28;20444;-79
2022/01/05 07:08:18;;;;;;;21.27;3.33;;;;;;;;;;5060785;28;20475;-80
2022/01/05 07:10:44;;;;;;;13.33;2.70;;;;;;;;;;5061645;28;20463;-79
2022/01/05 07:13:12;;;;;;;13.70;3.27;;;;;;;;;;5055315;28;20487;-79
2022/01/05 07:15:38;;;;;;;16.70;3.87;;;;;;;;;;5059569;28;20494;-79
2022/01/05 07:18:04;;;;;;;18.13;3.30;;;;;;;;;;5061918;28;20513;-78
2022/01/05 07:20:31;;;;;;;8.27;3.10;;;;;;;;;;5064707;28;20456;-79
2022/01/05 07:22:57;;;;;;;9.50;3.20;;;;;;;;;;5064140;28;21027;-79
2022/01/05 07:25:23;;;;;;;16.13;4.10;;;;;;;;;;5063848;28;20478;-79
2022/01/05 07:27:49;;;;;;;12.67;4.43;;;;;;;;;;5061029;28;20486;-79
2022/01/05 07:30:17;;;;;;;13.13;3.30;;;;;;;;;;5063940;28;20543;-79
2022/01/05 07:32:43;;;;;;;9.30;3.40;;;;;;;;;;5060635;28;20492;-79
2022/01/05 07:35:10;;;;;;;13.13;4.27;;;;;;;;;;5062199;28;20489;-79
2022/01/05 07:37:36;;;;;;;19.80;4.40;;;;;;;;;;5058534;28;20479;-79
2022/01/05 07:40:03;;;;;;;15.83;5.57;;;;;;;;;;5063683;28;20521;-79
2022/01/05 07:42:33;;;;;;;19.07;5.87;;;;;;;;;;5063336;28;20471;-78
2022/01/05 07:45:00;;;;;;;36.70;4.33;;;;;;;;;;5066349;28;20937;-79
2022/01/05 07:47:27;;;;;;;20.93;4.10;;;;;;;;;;5061516;28;20578;-79
2022/01/05 07:49:53;;;;;;;15.53;6.43;;;;;;;;;;5060158;28;20456;-79
2022/01/05 07:55:11;;;;;;;12.33;4.70;;;;;;;;;;5020111;28;20484;-78
2022/01/05 07:57:37;;;;;;;14.97;5.50;;;;;;;;;;5022051;28;20469;-79
2022/01/05 08:00:04;;;;;;;15.60;4.93;;;;;;;;;;5022776;28;20453;-79
2022/01/05 08:02:32;;;;;;;9.43;4.27;;;;;;;;;;5020487;28;20523;-77
2022/01/05 08:04:58;;;;;;;15.97;4.27;;;;;;;;;;5002483;28;20485;-78
2022/01/05 08:07:24;;;;;;;13.00;4.20;;;;;;;;;;5000933;28;20903;-78
2022/01/05 08:09:51;;;;;;;13.23;6.30;;;;;;;;;;4998261;28;20963;-79
2022/01/05 08:12:17;;;;;;;9.40;3.80;;;;;;;;;;5001653;28;20512;-76
2022/01/05 08:14:43;;;;;;;16.57;4.70;;;;;;;;;;5004629;28;20482;-78
2022/01/05 08:17:10;;;;;;;13.73;4.50;;;;;;;;;;5004867;28;20481;-78
2022/01/05 08:19:37;;;;;;;9.97;4.40;;;;;;;;;;5003035;28;20473;-78
2022/01/05 08:22:04;;;;;;;9.70;4.70;;;;;;;;;;4999784;28;20506;-78
2022/01/05 08:24:30;;;;;;;28.03;5.53;;;;;;;;;;5002199;28;20478;-78
2022/01/05 08:26:56;;;;;;;16.90;4.83;;;;;;;;;;5004243;28;20513;-77
2022/01/05 08:29:23;;;;;;;17.47;4.07;;;;;;;;;;5000300;28;20489;-79
2022/01/05 08:31:49;;;;;;;18.70;5.40;;;;;;;;;;5004548;28;20464;-79
2022/01/05 08:34:15;;;;;;;14.63;4.43;;;;;;;;;;5000510;28;20482;-79
2022/01/05 08:36:43;;;;;;;11.83;4.40;;;;;;;;;;5002728;28;21004;-77
2022/01/05 08:39:09;;;;;;;9.37;4.67;;;;;;;;;;5001338;28;20484;-78
2022/01/05 08:41:36;;;;;;;15.20;4.23;;;;;;;;;;5002290;28;20481;-79
2022/01/05 08:44:02;;;;;;;12.17;4.93;;;;;;;;;;5001812;28;20481;-79
2022/01/05 08:46:28;;;;;;;9.37;4.00;;;;;;;;;;5002972;28;20863;-79
2022/01/05 08:48:54;;;;;;;9.57;4.37;;;;;;;;;;5001289;28;20489;-78
2022/01/05 08:51:21;;;;;;;10.47;4.73;;;;;;;;;;4998665;28;21242;-79
2022/01/05 08:53:48;;;;;;;15.20;5.00;;;;;;;;;;4995463;28;20534;-79
2022/01/05 08:56:15;;;;;;;17.30;3.47;;;;;;;;;;4999098;28;20482;-78
2022/01/05 08:58:41;;;;;;;5.50;3.73;;;;;;;;;;5000044;28;20482;-78
2022/01/05 09:01:10;;;;;;;10.80;3.73;;;;;;;;;;4998221;28;20471;-79
2022/01/05 09:03:37;;;;;;;19.00;5.67;;;;;;;;;;5002190;28;20478;-78
2022/01/05 09:06:04;;;;;;;15.57;5.40;;;;;;;;;;5002864;28;20445;-79
2022/01/05 09:08:30;;;;;;;14.30;4.70;;;;;;;;;;5002501;28;20481;-79
2022/01/05 09:10:58;;;;;;;19.67;5.07;;;;;;;;;;5003011;28;20453;-79
2022/01/05 09:13:24;;;;;;;11.33;4.60;;;;;;;;;;5002821;28;20477;-79
2022/01/05 09:15:50;;;;;;;7.73;4.17;;;;;;;;;;5000355;28;20489;-78
2022/01/05 09:18:16;;;;;;;11.90;3.90;;;;;;;;;;5002600;28;20474;-79
2022/01/05 09:20:43;;;;;;;9.00;3.30;;;;;;;;;;5002540;28;20972;-78
2022/01/05 09:23:09;;;;;;;6.57;3.80;;;;;;;;;;5001154;28;20910;-78
2022/01/05 09:25:35;;;;;;;11.87;5.67;;;;;;;;;;5001928;28;20823;-78
2022/01/05 09:28:03;;;;;;;7.37;3.20;;;;;;;;;;5001752;28;20903;-79
2022/01/05 09:30:29;;;;;;;8.27;4.67;;;;;;;;;;4999728;28;20465;-78
2022/01/05 09:32:57;;;;;;;9.50;3.77;;;;;;;;;;5002466;28;20481;-79
2022/01/05 09:35:25;;;;;;;6.70;3.23;;;;;;;;;;5003982;28;20458;-78
2022/01/05 09:37:55;;;;;;;9.10;2.87;;;;;;;;;;5003406;28;20567;-79
2022/01/05 09:43:08;;;;;;;5.33;3.20;;;;;;;;;;5002473;28;20472;-79
2022/01/05 09:45:35;;;;;;;4.43;2.80;;;;;;;;;;5001547;28;20484;-79
2022/01/05 09:48:08;;;;;;;3.63;2.67;;;;;;;;;;5000572;28;20528;-78
2022/01/05 09:50:34;;;;;;;4.53;3.27;;;;;;;;;;4998661;28;20458;-78
2022/01/05 09:53:01;;;;;;;4.27;3.30;;;;;;;;;;4999797;28;20991;-78
2022/01/05 09:55:27;;;;;;;7.70;2.53;;;;;;;;;;5001918;28;20963;-78
2022/01/05 09:57:55;;;;;;;5.83;2.83;;;;;;;;;;5001229;28;20462;-78
2022/01/05 10:00:23;;;;;;;3.50;2.20;;;;;;;;;;4999207;28;20461;-79
2022/01/05 10:02:50;;;;;;;4.80;2.60;;;;;;;;;;5001691;28;20882;-78
2022/01/05 10:05:17;;;;;;;5.37;3.30;;;;;;;;;;5003555;28;20458;-79
2022/01/05 10:07:43;;;;;;;6.30;2.67;;;;;;;;;;5001531;28;20480;-78
2022/01/05 10:10:10;;;;;;;4.40;3.00;;;;;;;;;;5000873;28;20540;-79
2022/01/05 10:12:37;;;;;;;4.67;2.53;;;;;;;;;;4999924;28;20486;-79
2022/01/05 10:15:04;;;;;;;3.70;1.83;;;;;;;;;;5004376;28;20450;-80
2022/01/05 10:17:32;;;;;;;3.50;2.40;;;;;;;;;;5002936;28;21049;-79
2022/01/05 10:19:59;;;;;;;3.83;2.27;;;;;;;;;;5002022;28;20930;-80
2022/01/05 10:22:31;;;;;;;2.37;1.57;;;;;;;;;;5001482;28;20513;-78
2022/01/05 10:24:57;;;;;;;2.97;1.90;;;;;;;;;;5001351;28;20456;-80
2022/01/05 10:27:25;;;;;;;5.90;2.33;;;;;;;;;;5002027;28;20569;-80
2022/01/05 10:29:52;;;;;;;2.87;2.67;;;;;;;;;;5002874;28;20462;-80
2022/01/05 10:32:19;;;;;;;4.93;2.23;;;;;;;;;;5003486;28;20922;-80
2022/01/05 10:34:59;;;;;;;4.03;2.20;;;;;;;;;;5003869;28;20497;-79
2022/01/05 10:37:26;;;;;;;1.83;1.73;;;;;;;;;;5004951;28;20545;-80
2022/01/05 10:40:03;;;;;;;1.87;1.63;;;;;;;;;;5010157;28;20484;-80
2022/01/05 10:42:31;;;;;;;1.80;1.70;;;;;;;;;;5009278;28;20473;-80
2022/01/05 10:44:58;;;;;;;3.60;1.90;;;;;;;;;;5007758;28;20460;-79
2022/01/05 10:47:25;;;;;;;1.90;1.77;;;;;;;;;;5010484;28;20496;-79
2022/01/05 10:49:54;;;;;;;2.70;1.90;;;;;;;;;;5008778;28;20470;-80
2022/01/05 10:52:21;;;;;;;2.13;1.90;;;;;;;;;;5008692;28;20481;-80
2022/01/05 10:54:48;;;;;;;2.30;2.10;;;;;;;;;;5005142;28;20489;-80
2022/01/05 10:57:14;;;;;;;2.30;2.10;;;;;;;;;;5011473;28;20480;-80
2022/01/05 10:59:43;;;;;;;2.50;2.30;;;;;;;;;;5010796;28;20511;-80
2022/01/05 11:02:22;;;;;;;4.07;2.10;;;;;;;;;;5010973;28;20559;-80
2022/01/05 11:04:48;;;;;;;3.50;2.17;;;;;;;;;;5008304;28;20565;-81
2022/01/05 11:07:20;;;;;;;3.07;2.23;;;;;;;;;;5011047;28;20481;-80
2022/01/05 11:09:52;;;;;;;4.20;2.13;;;;;;;;;;5009464;28;20469;-80
2022/01/05 11:12:18;;;;;;;3.23;2.90;;;;;;;;;;5009597;28;20473;-79
2022/01/05 11:14:44;;;;;;;3.17;2.43;;;;;;;;;;5010538;28;20994;-80
2022/01/05 11:17:16;;;;;;;4.40;2.73;;;;;;;;;;5010013;28;20478;-81
2022/01/05 11:19:42;;;;;;;3.67;2.50;;;;;;;;;;5008957;28;20828;-78
2022/01/05 11:22:10;;;;;;;5.83;2.90;;;;;;;;;;5009285;28;20848;-80
2022/01/05 11:24:39;;;;;;;4.03;2.47;;;;;;;;;;5008938;28;20565;-79
2022/01/05 11:27:07;;;;;;;10.73;2.73;;;;;;;;;;5010121;28;20477;-79
2022/01/05 11:29:34;;;;;;;3.30;2.50;;;;;;;;;;5009646;28;20520;-80
2022/01/05 11:32:01;;;;;;;3.60;2.30;;;;;;;;;;5009270;28;20481;-81
2022/01/05 11:34:28;;;;;;;5.67;2.33;;;;;;;;;;5009384;28;20483;-80
2022/01/05 11:36:55;;;;;;;6.63;2.53;;;;;;;;;;5010500;28;20505;-80
2022/01/05 11:39:21;;;;;;;7.90;3.73;;;;;;;;;;5010291;28;20883;-80
2022/01/05 11:41:50;;;;;;;5.80;2.50;;;;;;;;;;5009782;28;20478;-80
2022/01/05 11:44:17;;;;;;;17.10;3.30;;;;;;;;;;5010554;28;20889;-80
2022/01/05 11:46:45;;;;;;;5.27;2.63;;;;;;;;;;5009920;28;20466;-80
2022/01/05 11:49:13;;;;;;;13.07;3.57;;;;;;;;;;5009424;28;20512;-80
2022/01/05 11:51:48;;;;;;;7.43;3.13;;;;;;;;;;5005621;28;20477;-81
2022/01/05 11:54:15;;;;;;;5.03;2.47;;;;;;;;;;5007287;28;20469;-80
2022/01/05 11:56:42;;;;;;;8.97;2.93;;;;;;;;;;5006067;28;20478;-81
2022/01/05 11:59:18;;;;;;;8.70;3.00;;;;;;;;;;5005922;28;20949;-80
2022/01/05 12:01:56;;;;;;;8.83;2.70;;;;;;;;;;5004655;28;20470;-79
2022/01/05 12:04:22;;;;;;;18.43;3.07;;;;;;;;;;5007447;28;20481;-80
2022/01/05 12:07:08;;;;;;;10.10;2.17;;;;;;;;;;5006324;28;20485;-80
2022/01/05 12:09:37;;;;;;;8.30;3.70;;;;;;;;;;5008272;28;20529;-78
2022/01/05 12:12:23;;;;;;;11.77;3.03;;;;;;;;;;5007094;28;20469;-80
2022/01/05 12:14:50;;;;;;;15.60;3.10;;;;;;;;;;5007635;28;20508;-81
2022/01/05 12:17:18;;;;;;;9.13;3.90;;;;;;;;;;5005403;28;21004;-80
2022/01/05 12:20:03;;;;;;;16.47;3.47;;;;;;;;;;5005256;28;20516;-80
2022/01/05 12:22:30;;;;;;;13.37;3.50;;;;;;;;;;5008289;28;20497;-80
2022/01/05 12:25:09;;;;;;;8.10;3.13;;;;;;;;;;5008375;28;20472;-80
2022/01/05 12:27:37;;;;;;;6.73;2.47;;;;;;;;;;5006864;28;20469;-80
2022/01/05 12:30:25;;;;;;;10.30;2.47;;;;;;;;;;5007105;28;20454;-80
2022/01/05 12:33:00;;;;;;;9.77;2.20;;;;;;;;;;5006166;28;22882;-81
2022/01/05 12:35:27;;;;;;;18.90;3.40;;;;;;;;;;5005031;28;21058;-80
2022/01/05 12:37:56;;;;;;;7.77;2.23;;;;;;;;;;5006687;28;20489;-80
2022/01/05 12:40:24;;;;;;;8.20;2.67;;;;;;;;;;5004402;28;20897;-80
2022/01/05 12:43:10;;;;;;;10.37;2.60;;;;;;;;;;5003257;28;20458;-81
2022/01/05 12:45:47;;;;;;;6.97;2.77;;;;;;;;;;5005025;28;20476;-80
2022/01/05 12:48:29;;;;;;;12.03;3.43;;;;;;;;;;5004038;28;20445;-80
2022/01/05 12:50:55;;;;;;;22.43;4.50;;;;;;;;;;5004739;28;20469;-80
2022/01/05 12:53:34;;;;;;;15.87;3.03;;;;;;;;;;5004037;28;20482;-80
2022/01/05 12:56:01;;;;;;;9.10;3.67;;;;;;;;;;5004220;28;20903;-79
2022/01/05 12:58:33;;;;;;;9.93;3.10;;;;;;;;;;5001212;28;20494;-80
2022/01/05 13:01:00;;;;;;;16.73;3.07;;;;;;;;;;5004481;28;20471;-80
2022/01/05 13:03:30;;;;;;;9.63;2.97;;;;;;;;;;5004113;28;21204;-80
2022/01/05 13:06:13;;;;;;;13.63;2.97;;;;;;;;;;5003009;28;20505;-79
2022/01/05 13:08:45;;;;;;;10.23;2.93;;;;;;;;;;5003924;28;20459;-80
2022/01/05 13:11:11;;;;;;;9.80;2.80;;;;;;;;;;5005947;28;20469;-80
2022/01/05 13:13:41;;;;;;;27.13;6.20;;;;;;;;;;5006582;28;20481;-80
2022/01/05 13:16:09;;;;;;;17.20;4.33;;;;;;;;;;5004368;28;20474;-80
2022/01/05 13:18:36;;;;;;;8.50;3.23;;;;;;;;;;5003591;28;20516;-81
2022/01/05 13:21:02;;;;;;;15.40;3.60;;;;;;;;;;5005496;28;20485;-79
2022/01/05 13:23:28;;;;;;;14.13;4.40;;;;;;;;;;5003231;28;21002;-80
2022/01/05 13:25:55;;;;;;;18.10;4.63;;;;;;;;;;5000775;28;20489;-80
2022/01/05 13:28:21;;;;;;;13.80;4.80;;;;;;;;;;5002353;28;20539;-79
2022/01/05 13:30:47;;;;;;;17.80;3.80;;;;;;;;;;5004531;28;20470;-80
2022/01/05 13:33:15;;;;;;;20.77;4.43;;;;;;;;;;5003854;28;20473;-80
2022/01/05 13:35:43;;;;;;;20.43;5.63;;;;;;;;;;5001987;28;20478;-78
2022/01/05 13:38:12;;;;;;;19.63;4.13;;;;;;;;;;5002273;28;20826;-78
2022/01/05 13:40:39;;;;;;;19.30;4.60;;;;;;;;;;5002782;28;20473;-79
2022/01/05 13:43:06;;;;;;;16.03;4.30;;;;;;;;;;5001225;28;20481;-80
2022/01/05 13:45:34;;;;;;;27.40;4.67;;;;;;;;;;5003079;28;20524;-80
2022/01/05 13:48:01;;;;;;;20.53;4.27;;;;;;;;;;5001814;28;20534;-79
2022/01/05 13:50:33;;;;;;;17.53;5.00;;;;;;;;;;5000462;28;20473;-79
2022/01/05 13:53:01;;;;;;;27.17;5.37;;;;;;;;;;5002223;28;20489;-80
2022/01/05 13:55:32;;;;;;;15.97;5.60;;;;;;;;;;4996607;28;20458;-79
2022/01/05 13:58:05;;;;;;;19.57;4.93;;;;;;;;;;4997425;28;20501;-77
2022/01/05 14:00:32;;;;;;;22.70;4.93;;;;;;;;;;4996034;28;20481;-78
2022/01/05 14:02:58;;;;;;;22.27;4.13;;;;;;;;;;4998964;28;20497;-80
2022/01/05 14:05:25;;;;;;;23.63;5.10;;;;;;;;;;4999809;28;20859;-79
2022/01/05 14:08:02;;;;;;;29.43;5.80;;;;;;;;;;4997892;28;20463;-78
2022/01/05 14:10:30;;;;;;;12.10;4.23;;;;;;;;;;4998957;28;20457;-79
2022/01/05 14:13:01;;;;;;;13.20;5.20;;;;;;;;;;5001255;28;20853;-78
2022/01/05 14:15:27;;;;;;;13.70;4.27;;;;;;;;;;4999769;28;20466;-79
2022/01/05 14:18:00;;;;;;;16.90;5.27;;;;;;;;;;5001052;28;20496;-79
2022/01/05 14:20:27;;;;;;;16.80;3.97;;;;;;;;;;4999261;28;20459;-79
2022/01/05 14:22:58;;;;;;;13.77;4.63;;;;;;;;;;5000182;28;20482;-79
2022/01/05 14:25:33;;;;;;;12.90;4.00;;;;;;;;;;4998443;28;20511;-79
2022/01/05 14:27:59;;;;;;;11.10;4.13;;;;;;;;;;4998627;28;21078;-76
2022/01/05 14:30:28;;;;;;;12.03;3.30;;;;;;;;;;5000482;28;20473;-80
2022/01/05 14:32:56;;;;;;;15.97;2.80;;;;;;;;;;5000617;28;20487;-79
2022/01/05 14:35:22;;;;;;;9.17;3.33;;;;;;;;;;5001803;28;20480;-79
2022/01/05 14:37:56;;;;;;;16.63;3.17;;;;;;;;;;5002113;28;20501;-79
2022/01/05 14:40:23;;;;;;;12.17;3.33;;;;;;;;;;4999759;28;20457;-79
2022/01/05 14:42:58;;;;;;;9.67;2.83;;;;;;;;;;4997939;28;20501;-79